Time;durP1;ratioP1;P1;durP2;ratioP2;P2;SDS_P1;SDS_P2;PMS_P1;PMS_P2;Temp;Humidity;BMP_temperature;BMP_pressure;BME280_temperature;BME280_humidity;BME280_pressure;Samples;Min_cycle;Max_cycle;Signal;HPM_P1;HPM_P2
2021/11/30 00:01:16;;;;;;;0.10;0.10;;;;;;;7.85;58.95;101078.94;5094106;28;20849;-81
2021/11/30 00:03:43;;;;;;;0.20;0.20;;;;;;;7.72;59.39;101105.38;5100986;28;20111;-82
2021/11/30 00:06:10;;;;;;;0.30;0.30;;;;;;;7.65;60.55;101087.84;5090906;28;20490;-83
2021/11/30 00:08:37;;;;;;;0.10;0.10;;;;;;;7.72;60.70;101068.44;5089654;28;20032;-81
2021/11/30 00:11:05;;;;;;;0.10;0.10;;;;;;;7.57;60.80;101073.81;5091536;28;20093;-83
2021/11/30 00:13:34;;;;;;;0.10;0.10;;;;;;;7.60;61.90;101060.59;5101737;28;20023;-82
2021/11/30 00:16:01;;;;;;;0.10;0.10;;;;;;;7.59;61.59;101056.22;5091922;28;20100;-81
2021/11/30 00:18:32;;;;;;;0.20;0.20;;;;;;;7.49;63.31;101049.22;5095118;28;20498;-83
2021/11/30 00:21:01;;;;;;;0.20;0.20;;;;;;;7.41;63.39;101052.78;5093094;28;20032;-82
2021/11/30 00:23:28;;;;;;;0.35;0.35;;;;;;;7.38;63.62;101051.91;5092574;28;20051;-82
2021/11/30 00:25:54;;;;;;;0.10;0.10;;;;;;;7.39;64.54;101044.00;5097817;28;20159;-82
2021/11/30 00:28:21;;;;;;;0.10;0.10;;;;;;;7.45;63.83;101041.34;5095879;28;20024;-83
2021/11/30 00:30:49;;;;;;;0.20;0.20;;;;;;;7.35;64.50;101030.81;5091283;28;20488;-82
2021/11/30 00:33:16;;;;;;;0.52;0.52;;;;;;;7.39;64.27;101025.53;5097543;28;20027;-82
2021/11/30 00:35:42;;;;;;;0.20;0.20;;;;;;;7.27;64.79;101029.09;5085934;28;20384;-83
2021/11/30 00:38:13;;;;;;;0.20;0.20;;;;;;;7.39;64.75;101016.75;5102081;28;20031;-83
2021/11/30 00:40:40;;;;;;;0.20;0.20;;;;;;;7.34;65.13;101007.97;5097869;28;20020;-82
2021/11/30 00:43:08;;;;;;;0.10;0.10;;;;;;;7.29;65.66;101005.38;5101759;28;20039;-82
2021/11/30 00:45:39;;;;;;;0.17;0.17;;;;;;;7.32;65.70;100988.66;5096476;28;20027;-82
2021/11/30 00:48:09;;;;;;;0.10;0.10;;;;;;;7.27;66.18;100986.06;5088561;28;20032;-82
2021/11/30 00:50:38;;;;;;;0.10;0.10;;;;;;;7.24;66.70;100980.78;5091000;28;20035;-82
2021/11/30 00:53:04;;;;;;;0.20;0.20;;;;;;;7.22;67.28;100972.03;5080675;28;20029;-83
2021/11/30 00:55:31;;;;;;;0.15;0.15;;;;;;;7.26;67.63;100986.94;5083921;28;20136;-82
2021/11/30 00:57:57;;;;;;;0.47;0.47;;;;;;;7.22;68.40;100979.94;5083080;28;20382;-82
2021/11/30 01:00:23;;;;;;;0.10;0.10;;;;;;;7.19;68.08;100978.19;5103496;28;20327;-83
2021/11/30 01:02:50;;;;;;;0.20;0.20;;;;;;;7.15;68.82;100971.16;5086989;28;20495;-82
2021/11/30 01:05:17;;;;;;;0.10;0.10;;;;;;;7.12;69.43;100966.75;5086187;28;20471;-82
2021/11/30 01:07:43;;;;;;;0.10;0.10;;;;;;;7.20;68.79;100955.31;5079666;28;20384;-82
2021/11/30 01:10:13;;;;;;;0.10;0.10;;;;;;;7.15;68.71;100943.94;5071541;28;20503;-82
2021/11/30 01:12:40;;;;;;;0.13;0.13;;;;;;;6.96;69.75;100954.53;5081605;28;20024;-82
2021/11/30 01:15:09;;;;;;;0.10;0.10;;;;;;;6.93;69.96;100951.94;5080313;28;20431;-83
2021/11/30 01:17:36;;;;;;;0.20;0.20;;;;;;;6.82;70.11;100973.03;5073314;28;20111;-82
2021/11/30 01:20:05;;;;;;;0.10;0.10;;;;;;;6.74;70.66;100956.34;5078656;28;20097;-81
2021/11/30 01:22:31;;;;;;;0.20;0.20;;;;;;;6.76;70.31;100944.06;5081913;28;20020;-83
2021/11/30 01:24:58;;;;;;;0.10;0.10;;;;;;;6.66;70.68;100951.09;5086318;28;20561;-82
2021/11/30 01:27:24;;;;;;;0.10;0.10;;;;;;;6.69;71.03;100951.13;5078150;28;20486;-82
2021/11/30 01:29:51;;;;;;;0.10;0.10;;;;;;;6.67;70.90;100950.22;5088003;28;20031;-82
2021/11/30 01:32:17;;;;;;;0.30;0.30;;;;;;;6.69;71.01;100955.50;5077157;28;20108;-82
2021/11/30 01:34:43;;;;;;;0.30;0.30;;;;;;;6.65;71.22;100938.81;5073643;28;20070;-82
2021/11/30 01:37:14;;;;;;;0.10;0.10;;;;;;;6.78;71.00;100932.66;5069934;28;20033;-82
2021/11/30 01:39:42;;;;;;;0.10;0.10;;;;;;;6.80;70.85;100925.63;5072456;28;20032;-83
2021/11/30 01:42:09;;;;;;;0.20;0.20;;;;;;;6.85;70.79;100925.59;5071289;28;20024;-81
2021/11/30 01:44:45;;;;;;;0.13;0.13;;;;;;;6.70;71.79;100915.13;5068030;28;20541;-83
2021/11/30 01:50:03;;;;;;;0.20;0.20;;;;;;;6.77;71.65;100914.22;5070146;28;20051;-82
2021/11/30 01:52:29;;;;;;;0.20;0.20;;;;;;;6.75;71.92;100924.78;5070421;28;20036;-82
2021/11/30 01:54:55;;;;;;;0.10;0.10;;;;;;;6.73;72.42;100909.81;5073981;28;20024;-81
2021/11/30 01:57:24;;;;;;;0.20;0.20;;;;;;;6.84;71.92;100908.06;5066233;28;20055;-82
2021/11/30 01:59:53;;;;;;;0.10;0.10;;;;;;;6.90;71.79;100897.50;5067452;28;20100;-82
2021/11/30 02:02:19;;;;;;;0.20;0.20;;;;;;;6.92;72.21;100900.13;5072955;28;20038;-82
2021/11/30 02:04:46;;;;;;;0.25;0.25;;;;;;;6.95;72.16;100895.72;5066265;28;20494;-81
2021/11/30 02:07:13;;;;;;;0.20;0.20;;;;;;;6.99;72.45;100896.59;5066291;28;20029;-82
2021/11/30 02:09:40;;;;;;;1.23;1.23;;;;;;;7.04;72.65;100891.28;5065425;28;20031;-82
2021/11/30 02:12:08;;;;;;;0.10;0.10;;;;;;;7.09;72.10;100893.03;5064278;28;20055;-82
2021/11/30 02:14:36;;;;;;;0.20;0.20;;;;;;;7.12;72.17;100900.91;5070560;28;20025;-82
2021/11/30 02:17:07;;;;;;;0.10;0.10;;;;;;;7.15;72.01;100888.59;5054264;28;20110;-82
2021/11/30 02:19:41;;;;;;;0.20;0.20;;;;;;;7.07;72.81;100878.97;5068936;28;20039;-82
2021/11/30 02:22:11;;;;;;;0.20;0.20;;;;;;;7.21;72.80;100891.19;5062824;28;20423;-82
2021/11/30 02:24:38;;;;;;;0.20;0.20;;;;;;;7.19;72.73;100887.69;5057715;28;20364;-81
2021/11/30 02:27:04;;;;;;;1.25;1.05;;;;;;;7.23;73.05;100874.50;5056362;28;20060;-82
2021/11/30 02:29:31;;;;;;;0.30;0.30;;;;;;;7.34;72.18;100874.44;5070155;28;20027;-82
2021/11/30 02:31:57;;;;;;;0.10;0.10;;;;;;;7.38;72.64;100875.31;5070237;28;20028;-81
2021/11/30 02:34:23;;;;;;;0.15;0.15;;;;;;;7.37;72.48;100861.22;5081695;28;20081;-82
2021/11/30 02:36:52;;;;;;;0.10;0.10;;;;;;;7.40;72.50;100855.94;5076363;28;20081;-82
2021/11/30 02:39:23;;;;;;;4.47;0.85;;;;;;;7.49;72.68;100855.00;5062516;28;20108;-82
2021/11/30 02:41:51;;;;;;;0.10;0.10;;;;;;;7.48;73.31;100862.91;5076836;28;20088;-82
2021/11/30 02:44:20;;;;;;;0.20;0.20;;;;;;;7.45;73.02;100838.34;5086697;28;20094;-81
2021/11/30 02:46:49;;;;;;;0.10;0.10;;;;;;;7.56;72.83;100845.28;5082116;28;20107;-82
2021/11/30 02:49:18;;;;;;;0.20;0.20;;;;;;;7.65;73.29;100846.97;5080952;28;20170;-82
2021/11/30 02:51:48;;;;;;;0.10;0.10;;;;;;;7.71;72.50;100837.28;5083398;28;20154;-82
2021/11/30 02:54:17;;;;;;;0.13;0.13;;;;;;;7.75;73.44;100831.06;5078297;28;20028;-83
2021/11/30 02:56:49;;;;;;;0.10;0.10;;;;;;;7.84;73.08;100831.84;5077965;28;20025;-84
2021/11/30 02:59:16;;;;;;;0.20;0.20;;;;;;;7.84;73.09;100834.50;5072061;28;20047;-82
2021/11/30 03:01:53;;;;;;;0.13;0.13;;;;;;;8.01;72.33;100824.69;5081453;28;20749;-83
2021/11/30 03:04:19;;;;;;;0.10;0.10;;;;;;;8.01;72.74;100815.88;5085917;28;20039;-81
2021/11/30 03:06:45;;;;;;;0.20;0.20;;;;;;;8.02;73.58;100813.22;5080210;28;20021;-81
2021/11/30 03:09:12;;;;;;;0.10;0.10;;;;;;;8.05;74.89;100799.13;5086495;28;20535;-82
2021/11/30 03:11:39;;;;;;;0.10;0.10;;;;;;;8.47;75.89;100799.56;5084759;28;20475;-83
2021/11/30 03:14:06;;;;;;;0.40;0.40;;;;;;;8.77;76.08;100786.88;5083821;28;20071;-82
2021/11/30 03:16:32;;;;;;;0.10;0.10;;;;;;;9.07;74.83;100789.97;5081617;28;20039;-82
2021/11/30 03:18:59;;;;;;;0.10;0.10;;;;;;;9.27;74.88;100786.16;5085865;28;20032;-82
2021/11/30 03:21:25;;;;;;;0.10;0.10;;;;;;;9.44;74.03;100781.47;5081916;28;20017;-82
2021/11/30 03:23:52;;;;;;;0.13;0.13;;;;;;;9.54;74.15;100777.81;5086147;28;20645;-82
2021/11/30 03:26:18;;;;;;;0.10;0.10;;;;;;;9.67;74.37;100765.22;5089352;28;20722;-82
2021/11/30 03:28:44;;;;;;;0.10;0.10;;;;;;;9.66;74.31;100774.06;5082224;28;20386;-82
2021/11/30 03:34:05;;;;;;;0.10;0.10;;;;;;;9.88;73.97;100773.66;5079585;28;20036;-82
2021/11/30 03:36:32;;;;;;;0.10;0.10;;;;;;;9.86;74.47;100775.50;5077352;28;20024;-82
2021/11/30 03:39:00;;;;;;;3.20;2.50;;;;;;;9.86;74.67;100779.00;5085274;28;20054;-82
2021/11/30 03:41:30;;;;;;;0.10;0.10;;;;;;;10.02;74.23;100757.56;5076619;28;20028;-81
2021/11/30 03:43:56;;;;;;;0.10;0.10;;;;;;;10.06;73.74;100759.22;5081028;28;20063;-81
2021/11/30 03:46:22;;;;;;;0.17;0.17;;;;;;;9.98;74.37;100759.38;5087362;28;20055;-81
2021/11/30 03:48:48;;;;;;;0.10;0.10;;;;;;;10.13;73.92;100752.91;5086670;28;20029;-82
2021/11/30 03:51:14;;;;;;;0.10;0.10;;;;;;;10.18;73.89;100752.81;5063599;28;20039;-82
2021/11/30 03:53:40;;;;;;;0.10;0.10;;;;;;;10.20;74.01;100743.97;5064693;28;20028;-82
2021/11/30 03:56:07;;;;;;;0.20;0.20;;;;;;;10.18;74.21;100743.09;5060862;28;20090;-82
2021/11/30 03:58:33;;;;;;;0.10;0.10;;;;;;;10.20;74.24;100751.00;5072565;28;20096;-82
2021/11/30 04:00:59;;;;;;;0.10;0.10;;;;;;;10.22;74.21;100745.69;5062489;28;20036;-82
2021/11/30 04:03:28;;;;;;;0.30;0.30;;;;;;;10.22;74.33;100751.88;5068287;28;20160;-83
2021/11/30 04:05:55;;;;;;;0.10;0.10;;;;;;;10.29;74.29;100757.91;5064846;28;20025;-83
2021/11/30 04:08:21;;;;;;;0.10;0.10;;;;;;;10.30;74.34;100749.06;5071110;28;20395;-83
2021/11/30 04:10:47;;;;;;;0.13;0.13;;;;;;;10.41;73.86;100757.69;5071398;28;20036;-83
2021/11/30 04:13:13;;;;;;;0.13;0.13;;;;;;;10.38;74.17;100767.47;5071828;28;20480;-83
2021/11/30 04:15:39;;;;;;;0.20;0.20;;;;;;;10.41;74.23;100752.38;5066767;28;20164;-82
2021/11/30 04:18:06;;;;;;;0.10;0.10;;;;;;;10.46;74.07;100745.22;5069079;28;20201;-83
2021/11/30 04:20:32;;;;;;;0.20;0.20;;;;;;;10.51;73.72;100753.94;5071432;28;20380;-82
2021/11/30 04:22:58;;;;;;;0.10;0.10;;;;;;;10.42;74.29;100756.78;5068543;28;20090;-83
2021/11/30 04:25:24;;;;;;;0.10;0.10;;;;;;;10.53;74.02;100743.31;5071804;28;20036;-82
2021/11/30 04:28:00;;;;;;;0.10;0.10;;;;;;;10.60;73.91;100742.25;5072721;28;20024;-83
2021/11/30 04:30:36;;;;;;;0.30;0.30;;;;;;;10.70;73.70;100736.78;5073914;28;20099;-83
2021/11/30 04:33:05;;;;;;;0.10;0.10;;;;;;;10.67;74.12;100738.56;5069541;28;20032;-82
2021/11/30 04:35:39;;;;;;;0.10;0.10;;;;;;;10.71;73.64;100727.94;5072737;28;20025;-83
2021/11/30 04:38:05;;;;;;;0.10;0.10;;;;;;;10.68;73.76;100729.72;5072769;28;20475;-82
2021/11/30 04:40:31;;;;;;;0.20;0.20;;;;;;;10.70;73.95;100731.47;5071764;28;20028;-83
2021/11/30 04:42:57;;;;;;;0.10;0.10;;;;;;;10.68;74.11;100732.38;5074038;28;20131;-82
2021/11/30 04:45:31;;;;;;;0.10;0.10;;;;;;;10.66;74.35;100725.38;5074971;28;20470;-81
2021/11/30 04:47:57;;;;;;;0.25;0.25;;;;;;;10.68;74.26;100723.56;5074783;28;20107;-82
2021/11/30 04:50:29;;;;;;;0.10;0.10;;;;;;;10.73;74.20;100716.38;5072378;28;20036;-81
2021/11/30 04:52:57;;;;;;;0.20;0.20;;;;;;;10.79;74.00;100710.06;5068677;28;20032;-82
2021/11/30 04:55:26;;;;;;;0.10;0.10;;;;;;;10.83;73.98;100711.75;5081121;28;20086;-82
2021/11/30 04:57:55;;;;;;;1.75;0.95;;;;;;;10.77;74.05;100703.94;5073874;28;20029;-81
2021/11/30 05:00:22;;;;;;;0.10;0.10;;;;;;;10.83;73.95;100707.31;5073329;28;20039;-82
2021/11/30 05:02:49;;;;;;;0.10;0.10;;;;;;;10.80;74.18;100704.75;5073951;28;20020;-82
2021/11/30 05:05:16;;;;;;;0.10;0.10;;;;;;;10.83;74.04;100695.84;5079630;28;20068;-82
2021/11/30 05:07:45;;;;;;;0.10;0.10;;;;;;;10.85;73.94;100704.59;5073335;28;20051;-82
2021/11/30 05:10:13;;;;;;;0.40;0.40;;;;;;;10.89;74.03;100705.41;5074538;28;20028;-82
2021/11/30 05:12:40;;;;;;;0.20;0.20;;;;;;;10.91;73.91;100699.16;5075002;28;20032;-82
2021/11/30 05:15:08;;;;;;;0.10;0.10;;;;;;;10.90;73.93;100699.22;5073309;28;20353;-81
2021/11/30 05:17:34;;;;;;;0.30;0.30;;;;;;;10.96;74.32;100696.41;5066878;28;20024;-82
2021/11/30 05:20:03;;;;;;;0.10;0.10;;;;;;;10.96;73.78;100691.97;5070740;28;20494;-82
2021/11/30 05:22:29;;;;;;;0.10;0.10;;;;;;;11.01;73.94;100691.88;5068296;28;20085;-83
2021/11/30 05:24:56;;;;;;;0.20;0.20;;;;;;;11.03;73.97;100713.03;5073251;28;20494;-84
2021/11/30 05:27:22;;;;;;;0.10;0.10;;;;;;;10.92;74.25;100710.66;5084252;22;20029;-78
2021/11/30 05:29:48;;;;;;;0.40;0.40;;;;;;;11.03;74.00;100713.03;5022737;28;20522;-78
2021/11/30 05:32:14;;;;;;;0.57;0.57;;;;;;;11.06;73.69;100699.72;5021743;28;20385;-78
2021/11/30 05:34:41;;;;;;;0.10;0.10;;;;;;;11.03;74.00;100718.34;5026657;28;20505;-78
2021/11/30 05:37:07;;;;;;;0.10;0.10;;;;;;;11.10;73.58;100715.53;5033736;28;20037;-79
2021/11/30 05:39:33;;;;;;;0.20;0.20;;;;;;;11.03;73.85;100697.13;5027095;28;20041;-78
2021/11/30 05:41:59;;;;;;;0.10;0.10;;;;;;;11.06;73.85;100712.97;5022249;28;20061;-78
2021/11/30 05:44:25;;;;;;;0.10;0.10;;;;;;;11.10;73.76;100704.03;5028533;28;20481;-77
2021/11/30 05:46:51;;;;;;;0.10;0.10;;;;;;;11.07;74.35;100709.41;5032770;28;20048;-77
2021/11/30 05:49:18;;;;;;;0.10;0.10;;;;;;;11.14;73.88;100713.63;5031934;28;20511;-77
2021/11/30 05:51:45;;;;;;;0.10;0.10;;;;;;;11.09;74.02;100718.19;5029803;28;20037;-77
2021/11/30 05:54:11;;;;;;;0.20;0.20;;;;;;;11.06;74.42;100713.84;5027481;28;20033;-79
2021/11/30 05:56:41;;;;;;;0.13;0.13;;;;;;;11.15;73.88;100728.66;5030777;28;20489;-78
2021/11/30 05:59:09;;;;;;;0.10;0.10;;;;;;;11.11;74.09;100721.69;5029748;28;20041;-79
2021/11/30 06:01:35;;;;;;;0.93;0.93;;;;;;;11.16;73.91;100719.78;5024588;28;20041;-80
2021/11/30 06:04:02;;;;;;;0.10;0.10;;;;;;;11.17;74.31;100724.19;5028937;28;20480;-81
2021/11/30 06:06:31;;;;;;;0.10;0.10;;;;;;;11.13;74.08;100723.38;5031764;28;20037;-80
2021/11/30 06:08:58;;;;;;;0.10;0.10;;;;;;;11.20;74.43;100716.13;5032746;28;20033;-80
2021/11/30 06:11:25;;;;;;;0.10;0.10;;;;;;;11.24;73.73;100723.13;5034398;28;20404;-79
2021/11/30 06:13:52;;;;;;;0.22;0.22;;;;;;;11.24;74.10;100723.13;5029474;28;20044;-80
2021/11/30 06:16:19;;;;;;;0.10;0.10;;;;;;;11.24;74.08;100717.84;5033562;28;20072;-79
2021/11/30 06:18:47;;;;;;;0.03;0.03;;;;;;;11.18;74.13;100712.69;5033878;28;20053;-79
2021/11/30 06:21:17;;;;;;;0.10;0.10;;;;;;;11.22;73.93;100714.34;5025449;28;20038;-79
2021/11/30 06:23:44;;;;;;;3.15;2.88;;;;;;;11.22;73.83;100698.41;5023564;28;20031;-79
2021/11/30 06:26:11;;;;;;;1.10;1.10;;;;;;;11.29;73.62;100707.97;5014250;28;20022;-79
2021/11/30 06:28:38;;;;;;;0.40;0.40;;;;;;;11.27;73.84;100696.53;5028052;28;20033;-80
2021/11/30 06:31:06;;;;;;;0.20;0.20;;;;;;;11.33;73.42;100701.66;5022065;28;20048;-79
2021/11/30 06:33:33;;;;;;;0.20;0.20;;;;;;;11.37;73.25;100706.91;5015883;28;20041;-79
2021/11/30 06:36:00;;;;;;;0.10;0.10;;;;;;;11.43;73.15;100707.63;5032482;28;20116;-79
2021/11/30 06:38:26;;;;;;;0.10;0.10;;;;;;;11.41;73.29;100703.25;5033824;28;20117;-80
2021/11/30 06:40:53;;;;;;;0.20;0.20;;;;;;;11.43;73.29;100715.56;5033608;28;20540;-79
2021/11/30 06:43:19;;;;;;;1.00;0.57;;;;;;;11.48;73.10;100710.16;5033604;28;20056;-80
2021/11/30 06:45:46;;;;;;;1.60;1.50;;;;;;;11.41;73.37;100719.19;5033310;28;20062;-80
2021/11/30 06:48:12;;;;;;;0.10;0.10;;;;;;;11.53;72.66;100710.06;5033396;28;20039;-79
2021/11/30 06:50:39;;;;;;;0.30;0.30;;;;;;;11.57;73.07;100709.03;5027342;28;20132;-78
2021/11/30 06:53:05;;;;;;;0.10;0.10;;;;;;;11.52;72.92;100706.50;5021961;28;20080;-79
2021/11/30 06:55:32;;;;;;;0.10;0.10;;;;;;;11.54;72.74;100703.81;5018007;28;20057;-79
2021/11/30 06:57:58;;;;;;;0.10;0.10;;;;;;;11.54;72.82;100714.41;5021073;28;20041;-79
2021/11/30 07:00:26;;;;;;;0.50;0.50;;;;;;;11.60;72.40;100704.53;5020458;28;20107;-79
2021/11/30 07:02:52;;;;;;;0.10;0.10;;;;;;;11.67;72.53;100715.00;5026435;28;20021;-80
2021/11/30 07:05:31;;;;;;;0.10;0.10;;;;;;;11.69;72.52;100710.50;5029150;28;20040;-79
2021/11/30 07:08:18;;;;;;;0.50;0.35;;;;;;;11.65;72.70;100713.25;5028598;28;20029;-80
2021/11/30 07:11:02;;;;;;;0.40;0.40;;;;;;;11.49;73.48;100709.25;5031576;28;20044;-79
2021/11/30 07:13:30;;;;;;;5.72;3.35;;;;;;;11.63;72.62;100712.41;5032343;28;20084;-79
2021/11/30 07:16:07;;;;;;;0.10;0.10;;;;;;;11.56;72.70;100718.78;5031069;28;20029;-80
2021/11/30 07:18:36;;;;;;;0.10;0.10;;;;;;;11.59;73.09;100713.41;5026877;28;20021;-79
2021/11/30 07:21:03;;;;;;;0.38;0.38;;;;;;;11.57;73.00;100709.91;5030566;28;20511;-79
2021/11/30 07:23:32;;;;;;;0.10;0.10;;;;;;;11.60;72.82;100725.75;5025876;28;20033;-79
2021/11/30 07:25:59;;;;;;;0.40;0.40;;;;;;;11.59;73.25;100715.16;5027658;28;20037;-78
2021/11/30 07:28:29;;;;;;;0.10;0.10;;;;;;;11.59;72.91;100724.00;5031989;28;20037;-80
2021/11/30 07:30:57;;;;;;;0.10;0.10;;;;;;;11.68;72.96;100714.94;5030931;28;20064;-79
2021/11/30 07:33:24;;;;;;;0.10;0.10;;;;;;;11.69;72.25;100724.66;5024650;28;20030;-79
2021/11/30 07:35:51;;;;;;;0.10;0.10;;;;;;;11.70;72.94;100730.81;5026125;28;20397;-79
2021/11/30 07:38:17;;;;;;;0.20;0.20;;;;;;;11.55;73.40;100764.81;5030982;28;20422;-79
2021/11/30 07:40:44;;;;;;;0.30;0.30;;;;;;;11.59;73.09;100736.41;5027742;28;20040;-79
2021/11/30 07:43:10;;;;;;;0.90;0.90;;;;;;;11.58;73.28;100738.19;5031073;28;20037;-79
2021/11/30 07:45:36;;;;;;;0.15;0.15;;;;;;;11.64;72.85;100730.06;5027630;28;20026;-80
2021/11/30 07:48:03;;;;;;;0.10;0.10;;;;;;;11.60;73.18;100722.22;5029881;28;20025;-80
2021/11/30 07:50:29;;;;;;;0.10;0.10;;;;;;;11.62;73.17;100723.06;5028035;28;20033;-80
2021/11/30 07:52:55;;;;;;;0.10;0.10;;;;;;;11.60;73.38;100747.00;5029671;28;20100;-79
2021/11/30 07:55:22;;;;;;;0.25;0.25;;;;;;;11.68;73.50;100730.00;5029460;28;20064;-82
2021/11/30 07:57:48;;;;;;;0.10;0.10;;;;;;;11.59;73.58;100745.25;5030089;28;20606;-80
2021/11/30 08:00:18;;;;;;;0.10;0.10;;;;;;;11.73;73.12;100736.91;5028979;28;20104;-82
2021/11/30 08:02:46;;;;;;;0.10;0.10;;;;;;;11.67;73.60;100753.00;5028119;28;20083;-80
2021/11/30 08:05:14;;;;;;;0.57;0.57;;;;;;;11.61;74.04;100747.84;5028621;28;20397;-80
2021/11/30 08:07:40;;;;;;;0.10;0.10;;;;;;;11.55;73.99;100742.69;5028087;28;20037;-81
2021/11/30 08:10:13;;;;;;;0.10;0.10;;;;;;;11.67;73.51;100736.22;5028048;28;20038;-81
2021/11/30 08:12:39;;;;;;;0.10;0.10;;;;;;;11.67;73.60;100753.00;5033890;28;20026;-80
2021/11/30 08:15:07;;;;;;;0.10;0.10;;;;;;;11.67;74.10;100741.53;5025265;28;20028;-80
2021/11/30 08:17:33;;;;;;;1.45;1.35;;;;;;;11.64;73.50;100758.41;5029760;28;20022;-80
2021/11/30 08:20:00;;;;;;;0.10;0.10;;;;;;;11.64;73.71;100753.09;5021513;28;20734;-80
2021/11/30 08:22:26;;;;;;;0.10;0.10;;;;;;;11.72;74.10;100750.22;5020604;28;20500;-80
2021/11/30 08:24:53;;;;;;;0.10;0.10;;;;;;;11.70;73.97;100757.34;5015059;28;20029;-81
2021/11/30 08:27:19;;;;;;;0.63;0.38;;;;;;;11.69;73.71;100747.66;5038916;22;20073;-82
2021/11/30 08:29:50;;;;;;;0.10;0.10;;;;;;;11.69;73.60;100745.00;5001158;28;20046;-89
2021/11/30 08:32:20;;;;;;;0.10;0.10;;;;;;;11.63;74.01;100754.84;5007242;28;20038;-92
2021/11/30 08:34:50;;;;;;;0.10;0.10;;;;;;;11.77;73.51;100756.28;4990411;28;20068;-86
2021/11/30 08:37:16;;;;;;;2.25;2.08;;;;;;;11.63;74.06;100752.19;5010791;28;20041;-87
2021/11/30 08:39:43;;;;;;;0.20;0.20;;;;;;;11.64;74.43;100751.31;4978082;28;20046;-88
2021/11/30 08:42:11;;;;;;;0.15;0.15;;;;;;;11.68;74.43;100759.19;4979893;28;20060;-88
2021/11/30 08:44:39;;;;;;;0.10;0.10;;;;;;;11.65;74.45;100754.81;4982950;28;20098;-88
2021/11/30 08:47:09;;;;;;;0.10;0.10;;;;;;;11.77;73.85;100749.19;4980730;28;20038;-86
2021/11/30 08:49:36;;;;;;;0.10;0.10;;;;;;;11.70;73.89;100741.44;4980990;28;20026;-83
2021/11/30 08:52:06;;;;;;;0.63;0.43;;;;;;;11.78;73.69;100744.75;4988662;28;20050;-86
2021/11/30 08:54:34;;;;;;;0.20;0.20;;;;;;;11.69;73.97;100747.66;5000941;28;20061;-89
2021/11/30 08:57:01;;;;;;;0.10;0.10;;;;;;;11.72;73.96;100750.22;4981617;28;20173;-88
2021/11/30 08:59:27;;;;;;;0.10;0.10;;;;;;;11.75;73.97;100755.44;4980792;28;20034;-88
2021/11/30 09:01:54;;;;;;;0.50;0.50;;;;;;;11.63;73.80;100781.41;4980170;28;20065;-88
2021/11/30 09:04:20;;;;;;;0.10;0.10;;;;;;;11.77;73.34;100753.63;4982612;28;20031;-87
2021/11/30 09:06:47;;;;;;;0.10;0.10;;;;;;;11.84;73.47;100747.25;4978704;28;20022;-86
2021/11/30 09:09:15;;;;;;;0.10;0.10;;;;;;;11.87;73.26;100752.47;4976281;28;20034;-87
2021/11/30 09:11:42;;;;;;;0.30;0.30;;;;;;;11.80;73.33;100758.84;4976698;28;20026;-87
2021/11/30 09:14:09;;;;;;;0.20;0.20;;;;;;;11.74;73.28;100764.31;4974504;28;20401;-86
2021/11/30 09:16:36;;;;;;;0.20;0.20;;;;;;;11.84;73.00;100759.63;4977096;28;20363;-87
2021/11/30 09:19:04;;;;;;;1.88;1.75;;;;;;;11.98;72.31;100763.69;4976862;28;20042;-87
2021/11/30 09:21:30;;;;;;;0.10;0.10;;;;;;;11.95;73.00;100774.38;4977814;28;20034;-88
2021/11/30 09:23:57;;;;;;;0.75;0.75;;;;;;;11.96;72.46;100769.97;4993163;28;20042;-85
2021/11/30 09:26:24;;;;;;;0.20;0.20;;;;;;;12.00;72.66;100768.09;4989243;28;20464;-84
2021/11/30 09:28:50;;;;;;;0.20;0.20;;;;;;;11.93;72.47;100770.88;4992782;28;20085;-82
2021/11/30 09:31:20;;;;;;;0.10;0.10;;;;;;;11.93;72.92;100781.50;4991722;28;20113;-89
2021/11/30 09:33:47;;;;;;;0.90;0.90;;;;;;;12.00;72.28;100792.88;5000673;28;20035;-86
2021/11/30 09:36:15;;;;;;;0.32;0.32;;;;;;;11.94;73.00;100791.22;4993452;28;20041;-84
2021/11/30 09:38:41;;;;;;;0.10;0.10;;;;;;;11.93;72.22;100785.97;4991718;28;20124;-88
2021/11/30 09:41:08;;;;;;;0.28;0.28;;;;;;;11.95;72.42;100771.72;4991563;28;20477;-87
2021/11/30 09:43:38;;;;;;;0.40;0.40;;;;;;;12.08;72.05;100782.91;4990816;28;20022;-88
2021/11/30 09:46:05;;;;;;;0.10;0.10;;;;;;;12.02;72.30;100779.56;4989761;28;20041;-87
2021/11/30 09:48:32;;;;;;;10.30;4.22;;;;;;;12.12;72.00;100767.78;4983301;28;20030;-85
2021/11/30 09:50:59;;;;;;;0.10;0.10;;;;;;;12.18;71.83;100770.25;4987146;28;20062;-85
2021/11/30 09:53:27;;;;;;;0.45;0.45;;;;;;;12.27;71.59;100777.97;4992460;28;20418;-86
2021/11/30 09:55:54;;;;;;;0.10;0.10;;;;;;;12.21;72.05;100786.13;4986463;28;20023;-87
2021/11/30 09:58:22;;;;;;;0.30;0.30;;;;;;;12.22;71.65;100777.22;4992569;28;20046;-87
2021/11/30 10:00:50;;;;;;;0.10;0.10;;;;;;;12.33;71.74;100776.06;4989196;28;20387;-85
2021/11/30 10:03:18;;;;;;;0.10;0.10;;;;;;;12.28;71.68;100792.97;4992858;28;20038;-81
2021/11/30 10:05:45;;;;;;;0.20;0.20;;;;;;;12.30;71.64;100791.16;4987518;28;20023;-82
2021/11/30 10:08:34;;;;;;;0.10;0.10;;;;;;;12.55;71.42;100789.63;4990958;28;20455;-82
2021/11/30 10:11:02;;;;;;;0.10;0.10;;;;;;;12.44;71.49;100793.44;4977817;28;20046;-79
2021/11/30 10:13:29;;;;;;;0.20;0.20;;;;;;;12.52;71.53;100787.03;4988519;28;20482;-81
2021/11/30 10:16:00;;;;;;;0.85;0.65;;;;;;;12.47;71.26;100787.16;4990577;28;20026;-80
2021/11/30 10:18:31;;;;;;;0.20;0.20;;;;;;;12.46;71.23;100780.09;4991536;28;20049;-79
2021/11/30 10:21:19;;;;;;;0.10;0.10;;;;;;;12.54;71.68;100788.72;4990163;28;20045;-79
2021/11/30 10:26:31;;;;;;;0.10;0.10;;;;;;;12.49;71.31;100780.00;5068802;28;20439;-79
2021/11/30 10:29:09;;;;;;;0.20;0.20;;;;;;;12.50;71.93;100784.41;5043835;28;20041;-79
2021/11/30 10:31:42;;;;;;;0.10;0.10;;;;;;;12.54;71.69;100788.72;5045664;28;20056;-86
2021/11/30 10:37:07;;;;;;;0.10;0.10;;;;;;;12.37;71.57;100785.69;5078207;28;20915;-82
2021/11/30 10:39:37;;;;;;;0.10;0.10;;;;;;;12.46;71.61;100796.91;5065248;28;20040;-83
2021/11/30 10:44:59;;;;;;;0.10;0.10;;;;;;;12.55;70.70;100801.09;5075390;28;20421;-82
2021/11/30 10:47:27;;;;;;;4.57;0.93;;;;;;;12.53;71.38;100788.78;5064862;28;20040;-81
2021/11/30 10:50:05;;;;;;;0.60;0.60;;;;;;;12.43;70.99;100790.81;5061462;28;20050;-84
2021/11/30 10:52:33;;;;;;;0.20;0.20;;;;;;;12.51;70.77;100803.88;5063530;28;20075;-79
2021/11/30 10:57:49;;;;;;;0.28;0.28;;;;;;;12.45;71.54;100789.00;5076449;28;20428;-80
2021/11/30 11:03:10;;;;;;;0.20;0.20;;;;;;;12.57;70.74;100787.75;5097662;27;20407;-82
2021/11/30 11:05:41;;;;;;;0.10;0.10;;;;;;;12.55;71.57;100790.47;5101585;28;20554;-82
2021/11/30 11:08:13;;;;;;;0.10;0.10;;;;;;;12.47;71.78;100771.19;5101361;28;20028;-83
2021/11/30 11:10:44;;;;;;;0.10;0.10;;;;;;;12.60;71.35;100783.22;5098002;28;20025;-82
2021/11/30 11:13:29;;;;;;;0.10;0.10;;;;;;;12.77;70.43;100784.50;5076016;28;20089;-84
2021/11/30 11:15:58;;;;;;;0.10;0.10;;;;;;;12.54;71.61;100779.88;5076518;28;20411;-83
2021/11/30 11:18:28;;;;;;;0.73;0.73;;;;;;;12.55;71.97;100779.84;5077535;28;20043;-82
2021/11/30 11:26:55;;;;;;;0.10;0.10;;;;;;;12.52;71.65;100773.75;5109840;27;20392;-83
2021/11/30 11:29:25;;;;;;;0.10;0.10;;;;;;;12.49;71.79;100779.16;5099539;28;20104;-81
2021/11/30 11:34:34;;;;;;;0.10;0.10;;;;;;;12.56;72.00;100776.28;5084008;28;20404;-83
2021/11/30 11:37:03;;;;;;;0.10;0.10;;;;;;;12.59;71.54;100778.81;5065391;28;20044;-83
2021/11/30 11:39:30;;;;;;;0.10;0.10;;;;;;;12.38;72.57;100768.84;5063232;28;20079;-83
2021/11/30 11:41:59;;;;;;;0.10;0.10;;;;;;;12.54;71.74;100779.88;5058506;28;20519;-83
2021/11/30 11:44:25;;;;;;;0.10;0.10;;;;;;;12.56;72.00;100778.03;5056823;28;20028;-83
2021/11/30 11:46:58;;;;;;;0.10;0.10;;;;;;;12.58;71.79;100769.09;5062120;28;20024;-81
2021/11/30 11:49:26;;;;;;;0.10;0.10;;;;;;;12.51;72.45;100772.88;5063995;28;20080;-83
2021/11/30 11:51:55;;;;;;;0.20;0.20;;;;;;;12.53;72.37;100771.03;5057439;28;20040;-83
2021/11/30 11:54:29;;;;;;;0.10;0.10;;;;;;;12.51;72.30;100786.16;5065407;28;20109;-81
2021/11/30 11:59:49;;;;;;;0.17;0.17;;;;;;;12.50;72.46;100784.41;5084497;28;20419;-82
2021/11/30 12:05:06;;;;;;;0.10;0.10;;;;;;;12.46;72.77;100790.72;5069268;28;20233;-85